Time;durP1;ratioP1;P1;durP2;ratioP2;P2;SDS_P1;SDS_P2;PMS_P1;PMS_P2;Temp;Humidity;BMP_temperature;BMP_pressure;BME280_temperature;BME280_humidity;BME280_pressure;Samples;Min_cycle;Max_cycle;Signal;HPM_P1;HPM_P2
2022/01/31 00:00:22;;;;;;;;;;;;;;;22.07;19.32;97124.47;5074125;28;1666;-77
2022/01/31 00:02:48;;;;;;;;;;;;;;;22.50;19.01;97133.19;5064683;28;1087;-77
2022/01/31 00:05:13;;;;;;;;;;;;;;;23.06;18.21;97117.75;5064254;28;928;-77
2022/01/31 00:07:39;;;;;;;;;;;;;;;23.24;18.07;97129.03;5041031;28;1802;-77
2022/01/31 00:10:08;;;;;;;;;;;;;;;22.78;18.11;97120.56;4971908;28;1718;-77
2022/01/31 00:12:43;;;;;;;;;;;;;;;22.27;19.09;97132.53;4964762;29;934;-77
2022/01/31 00:15:08;;;;;;;;;;;;;;;21.85;19.25;97133.06;4962886;29;1910;-77
2022/01/31 00:17:34;;;;;;;;;;;;;;;22.31;19.20;97135.22;4964170;29;991;-77
2022/01/31 00:19:59;;;;;;;;;;;;;;;23.11;18.06;97137.75;4962721;29;1019;-76
2022/01/31 00:22:25;;;;;;;;;;;;;;;23.34;17.80;97139.09;4944762;29;1001;-77
2022/01/31 00:24:50;;;;;;;;;;;;;;;22.70;18.69;97139.19;4953873;29;1770;-77
2022/01/31 00:27:16;;;;;;;;;;;;;;;22.41;18.94;97144.53;4965972;29;856;-78
2022/01/31 00:29:41;;;;;;;;;;;;;;;22.22;19.14;97150.16;4943139;29;1136;-78
2022/01/31 00:32:07;;;;;;;;;;;;;;;22.48;18.96;97147.81;4945514;29;1095;-77
2022/01/31 00:34:32;;;;;;;;;;;;;;;22.57;18.77;97158.38;4943713;29;1918;-77
2022/01/31 00:36:58;;;;;;;;;;;;;;;22.33;18.91;97156.19;4945710;29;898;-77
2022/01/31 00:39:23;;;;;;;;;;;;;;;22.30;19.11;97162.78;4951949;29;1762;-77
2022/01/31 00:41:49;;;;;;;;;;;;;;;22.36;18.88;97163.72;4981891;28;1677;-77
2022/01/31 00:46:43;;;;;;;;;;;;;;;22.54;18.53;97167.84;4999872;28;949;-78
2022/01/31 00:49:22;;;;;;;;;;;;;;;22.70;18.58;97173.22;4982186;28;929;-78
2022/01/31 00:51:48;;;;;;;;;;;;;;;22.77;18.28;97169.25;4983945;28;973;-77
2022/01/31 00:54:13;;;;;;;;;;;;;;;22.50;18.54;97167.22;5017212;28;1910;-77
2022/01/31 00:56:39;;;;;;;;;;;;;;;22.48;18.53;97164.03;4979503;28;1199;-76
2022/01/31 00:59:04;;;;;;;;;;;;;;;22.43;18.88;97173.97;4961945;29;1043;-77
2022/01/31 01:01:30;;;;;;;;;;;;;;;22.39;19.01;97167.69;5018776;28;967;-76
2022/01/31 01:03:56;;;;;;;;;;;;;;;22.50;18.78;97155.88;4980722;28;1250;-77
2022/01/31 01:06:21;;;;;;;;;;;;;;;21.93;19.30;97158.25;4984069;28;1001;-77
2022/01/31 01:08:47;;;;;;;;;;;;;;;22.63;18.32;97156.50;4999787;28;1052;-77
2022/01/31 01:11:12;;;;;;;;;;;;;;;22.62;18.21;97140.75;4970979;28;1694;-76
2022/01/31 01:13:39;;;;;;;;;;;;;;;22.49;18.72;97159.97;4983468;28;1159;-78
2022/01/31 01:16:04;;;;;;;;;;;;;;;22.43;18.87;97156.16;4984404;28;1906;-77
2022/01/31 01:18:29;;;;;;;;;;;;;;;22.63;18.55;97150.81;4960860;29;1240;-77
2022/01/31 01:20:55;;;;;;;;;;;;;;;22.75;18.32;97161.25;4965213;28;926;-77
2022/01/31 01:23:21;;;;;;;;;;;;;;;22.43;18.93;97161.84;4960684;29;1032;-77
2022/01/31 01:25:47;;;;;;;;;;;;;;;22.43;18.73;97178.84;4964131;29;1804;-77
2022/01/31 01:28:14;;;;;;;;;;;;;;;22.19;18.46;97125.63;4950774;29;947;-78
2022/01/31 01:30:39;;;;;;;;;;;;;;;22.33;18.93;97170.34;4983640;28;1236;-77
2022/01/31 01:33:11;;;;;;;;;;;;;;;22.26;18.86;97170.63;4931283;29;1098;-78
2022/01/31 01:35:38;;;;;;;;;;;;;;;22.38;18.88;97162.47;4929469;29;1891;-77
2022/01/31 01:38:07;;;;;;;;;;;;;;;22.31;18.91;97161.50;4905788;29;1744;-77
2022/01/31 01:40:34;;;;;;;;;;;;;;;22.18;19.14;97162.94;4924602;29;1717;-76
2022/01/31 01:43:00;;;;;;;;;;;;;;;22.43;18.98;97164.66;4867458;29;1095;-78
2022/01/31 01:45:26;;;;;;;;;;;;;;;22.59;18.57;97162.34;4862268;29;963;-78
2022/01/31 01:47:51;;;;;;;;;;;;;;;22.25;18.66;97163.41;4831524;29;978;-77
2022/01/31 01:50:17;;;;;;;;;;;;;;;21.99;19.26;97167.72;4846695;29;1025;-76
2022/01/31 01:52:43;;;;;;;;;;;;;;;21.53;19.93;97170.38;4906164;29;1581;-77
2022/01/31 01:55:08;;;;;;;;;;;;;;;22.26;19.06;97181.97;4849381;29;1959;-77
2022/01/31 01:57:34;;;;;;;;;;;;;;;22.22;18.93;97175.66;4851219;29;1237;-77
2022/01/31 01:59:59;;;;;;;;;;;;;;;22.15;19.31;97181.63;4848239;29;1191;-78
2022/01/31 02:02:36;;;;;;;;;;;;;;;22.76;18.48;97177.00;4818307;29;1361;-78
2022/01/31 02:05:04;;;;;;;;;;;;;;;22.51;18.83;97180.91;4812752;29;1202;-77
2022/01/31 02:07:39;;;;;;;;;;;;;;;22.15;19.13;97178.81;4832499;29;1898;-77
2022/01/31 02:10:07;;;;;;;;;;;;;;;22.00;19.16;97169.28;4833362;29;1687;-78
2022/01/31 02:12:39;;;;;;;;;;;;;;;22.74;18.43;97176.69;4796999;29;1039;-78
2022/01/31 02:15:06;;;;;;;;;;;;;;;22.75;18.66;97178.25;4830383;29;1915;-76
2022/01/31 02:17:50;;;;;;;;;;;;;;;22.21;19.03;97167.63;4849436;29;973;-77
2022/01/31 02:20:18;;;;;;;;;;;;;;;22.08;19.44;97164.91;4833841;29;1275;-77
2022/01/31 02:22:46;;;;;;;;;;;;;;;22.47;19.11;97168.94;4849619;29;1114;-77
2022/01/31 02:25:32;;;;;;;;;;;;;;;22.76;18.65;97162.81;4856810;29;1694;-77
2022/01/31 02:28:18;;;;;;;;;;;;;;;22.81;18.52;97150.84;4895886;29;1213;-78
2022/01/31 02:30:43;;;;;;;;;;;;;;;22.04;19.17;97169.94;4895641;29;1086;-77
2022/01/31 02:33:09;;;;;;;;;;;;;;;21.70;19.46;97160.38;4905813;29;991;-78
2022/01/31 02:35:35;;;;;;;;;;;;;;;21.68;19.76;97160.06;4852048;29;1959;-77
2022/01/31 02:38:00;;;;;;;;;;;;;;;22.61;18.84;97167.53;4829120;29;1117;-77
2022/01/31 02:40:28;;;;;;;;;;;;;;;22.48;18.73;97164.03;4848705;29;1786;-76
2022/01/31 02:42:54;;;;;;;;;;;;;;;22.20;19.04;97171.72;4822492;29;1104;-78
2022/01/31 02:45:23;;;;;;;;;;;;;;;21.49;19.94;97164.06;4843954;29;1317;-77
2022/01/31 02:47:55;;;;;;;;;;;;;;;22.10;19.36;97168.06;4799857;29;1148;-78
2022/01/31 02:50:21;;;;;;;;;;;;;;;22.35;19.02;97172.72;4815760;29;1322;-77
2022/01/31 02:52:57;;;;;;;;;;;;;;;22.66;18.38;97169.75;4815529;29;1717;-77
2022/01/31 02:55:23;;;;;;;;;;;;;;;21.88;19.47;97175.88;4796321;29;1935;-77
2022/01/31 02:57:49;;;;;;;;;;;;;;;22.27;19.15;97177.88;4779162;29;1390;-77
2022/01/31 03:00:15;;;;;;;;;;;;;;;22.05;19.29;97171.50;4796270;30;1223;-77
2022/01/31 03:03:03;;;;;;;;;;;;;;;22.35;18.95;97173.50;4760214;30;1078;-77
2022/01/31 03:05:29;;;;;;;;;;;;;;;22.39;18.92;97172.56;4798535;29;1100;-77
2022/01/31 03:07:54;;;;;;;;;;;;;;;22.09;18.86;97166.50;4832005;29;1217;-77
2022/01/31 03:10:20;;;;;;;;;;;;;;;21.71;19.29;97167.63;4833618;29;1754;-77
2022/01/31 03:12:45;;;;;;;;;;;;;;;22.49;18.64;97166.44;4832329;29;1464;-78
2022/01/31 03:15:11;;;;;;;;;;;;;;;22.23;18.69;97168.75;4839392;29;1907;-77
2022/01/31 03:18:00;;;;;;;;;;;;;;;22.54;18.63;97173.53;4868699;29;1059;-77
2022/01/31 03:20:26;;;;;;;;;;;;;;;22.82;18.26;97160.91;4884784;29;1236;-77
2022/01/31 03:22:51;;;;;;;;;;;;;;;22.77;18.19;97175.72;4906325;29;1062;-77
2022/01/31 03:25:17;;;;;;;;;;;;;;;22.41;18.61;97175.69;4868738;29;1772;-77
2022/01/31 03:27:42;;;;;;;;;;;;;;;22.50;18.54;97178.56;4850614;29;1655;-78
2022/01/31 03:30:09;;;;;;;;;;;;;;;22.75;18.29;97178.25;4850130;29;1205;-77
2022/01/31 03:32:35;;;;;;;;;;;;;;;22.65;18.28;97173.84;4851541;29;1157;-77
2022/01/31 03:35:01;;;;;;;;;;;;;;;22.22;18.92;97175.66;4849621;29;1915;-77
2022/01/31 03:37:27;;;;;;;;;;;;;;;22.71;18.26;97177.63;4881417;29;1296;-77
2022/01/31 03:39:53;;;;;;;;;;;;;;;22.53;18.45;97174.75;4828585;29;1473;-78
2022/01/31 03:42:18;;;;;;;;;;;;;;;22.42;18.71;97182.94;4801105;29;1761;-77
2022/01/31 03:44:45;;;;;;;;;;;;;;;21.74;19.05;97180.84;4794510;29;982;-77
2022/01/31 03:47:10;;;;;;;;;;;;;;;21.98;19.02;97186.75;4833346;29;1127;-77
2022/01/31 03:49:36;;;;;;;;;;;;;;;22.39;18.75;97189.56;4806457;29;1309;-78
2022/01/31 03:52:09;;;;;;;;;;;;;;;22.12;19.00;97193.09;4797282;29;1274;-77
2022/01/31 03:54:43;;;;;;;;;;;;;;;22.44;18.58;97191.78;4799935;29;1896;-78
2022/01/31 03:57:08;;;;;;;;;;;;;;;22.12;18.67;97193.09;4832960;29;1663;-77
2022/01/31 03:59:54;;;;;;;;;;;;;;;22.08;19.01;97188.38;4831383;29;1125;-77
2022/01/31 04:02:20;;;;;;;;;;;;;;;22.27;18.79;97200.53;4839623;29;1088;-76
2022/01/31 04:04:45;;;;;;;;;;;;;;;22.38;18.77;97193.63;4868397;29;1001;-78
2022/01/31 04:07:11;;;;;;;;;;;;;;;21.78;18.91;97190.00;4869546;29;1009;-77
2022/01/31 04:09:36;;;;;;;;;;;;;;;22.53;18.43;97195.38;4832186;29;981;-78
2022/01/31 04:12:01;;;;;;;;;;;;;;;22.15;18.67;97192.97;4850528;29;1714;-77
2022/01/31 04:14:27;;;;;;;;;;;;;;;21.96;18.69;97203.41;4884653;29;1883;-78
2022/01/31 04:16:56;;;;;;;;;;;;;;;22.57;18.35;97206.59;4889076;29;1102;-76
2022/01/31 04:19:22;;;;;;;;;;;;;;;22.03;18.77;97203.16;4884854;29;1869;-77
2022/01/31 04:21:47;;;;;;;;;;;;;;;22.06;18.74;97218.41;4923656;29;981;-78
2022/01/31 04:24:19;;;;;;;;;;;;;;;22.49;18.14;97208.94;4905142;29;1060;-78
2022/01/31 04:26:55;;;;;;;;;;;;;;;22.57;18.10;97207.38;4899858;29;1673;-77
2022/01/31 04:29:20;;;;;;;;;;;;;;;22.20;18.53;97214.25;4905089;29;991;-78
2022/01/31 04:31:49;;;;;;;;;;;;;;;21.86;19.11;97215.97;4906868;29;942;-77
2022/01/31 04:34:14;;;;;;;;;;;;;;;21.73;19.22;97218.91;4904550;29;1903;-78
2022/01/31 04:36:40;;;;;;;;;;;;;;;21.88;18.93;97218.34;4936827;29;1009;-77
2022/01/31 04:39:05;;;;;;;;;;;;;;;22.38;18.42;97217.09;4962163;29;994;-77
2022/01/31 04:41:30;;;;;;;;;;;;;;;22.43;18.29;97229.88;4972125;28;1718;-78
2022/01/31 04:44:01;;;;;;;;;;;;;;;22.47;18.22;97230.50;4992666;28;987;-76
2022/01/31 04:46:26;;;;;;;;;;;;;;;22.65;18.07;97230.56;5041578;28;1039;-77
2022/01/31 04:48:51;;;;;;;;;;;;;;;22.42;18.14;97222.63;5022519;28;1018;-77
2022/01/31 04:51:17;;;;;;;;;;;;;;;22.61;17.78;97225.03;5004278;28;1020;-77
2022/01/31 04:53:42;;;;;;;;;;;;;;;22.31;18.28;97229.53;5000470;28;990;-78
2022/01/31 04:56:08;;;;;;;;;;;;;;;22.36;18.36;97226.06;5004708;28;1928;-78
2022/01/31 04:58:33;;;;;;;;;;;;;;;22.63;18.02;97245.19;4979812;28;924;-78
2022/01/31 05:00:59;;;;;;;;;;;;;;;22.45;17.97;97252.88;4964852;29;1073;-77
2022/01/31 05:03:24;;;;;;;;;;;;;;;22.51;18.28;97248.16;4962178;29;873;-78
2022/01/31 05:05:50;;;;;;;;;;;;;;;22.56;17.92;97244.72;4971548;28;1159;-77
2022/01/31 05:08:16;;;;;;;;;;;;;;;22.34;18.35;97259.78;5019302;28;1582;-77
2022/01/31 05:10:44;;;;;;;;;;;;;;;22.29;18.40;97257.56;5022826;28;972;-78
2022/01/31 05:13:11;;;;;;;;;;;;;;;22.01;18.65;97255.84;5000615;28;1222;-78
2022/01/31 05:15:36;;;;;;;;;;;;;;;22.13;18.41;97257.81;5002886;28;1883;-77
2022/01/31 05:18:02;;;;;;;;;;;;;;;22.39;18.03;97260.44;4987009;28;983;-77
2022/01/31 05:20:27;;;;;;;;;;;;;;;22.69;17.94;97265.22;4966774;28;1178;-78
2022/01/31 05:22:53;;;;;;;;;;;;;;;22.75;17.88;97260.50;4982356;28;990;-78
2022/01/31 05:25:18;;;;;;;;;;;;;;;22.77;17.61;97260.03;4982239;28;972;-77
2022/01/31 05:27:43;;;;;;;;;;;;;;;22.79;17.89;97263.16;4987840;28;1022;-77
2022/01/31 05:30:09;;;;;;;;;;;;;;;21.99;18.38;97269.69;5030586;28;961;-77
2022/01/31 05:32:34;;;;;;;;;;;;;;;21.81;18.92;97265.53;5042246;28;958;-77
2022/01/31 05:35:01;;;;;;;;;;;;;;;22.44;18.17;97268.31;5040182;28;1878;-78
2022/01/31 05:37:27;;;;;;;;;;;;;;;22.35;18.08;97269.84;5042326;28;893;-78
2022/01/31 05:39:52;;;;;;;;;;;;;;;22.38;18.20;97273.78;5025333;28;956;-77
2022/01/31 05:42:17;;;;;;;;;;;;;;;21.74;19.04;97274.28;5022381;28;1183;-78
2022/01/31 05:44:46;;;;;;;;;;;;;;;21.35;18.94;97267.28;5020349;28;1308;-77
2022/01/31 05:47:12;;;;;;;;;;;;;;;22.02;18.58;97286.56;5022902;28;846;-78
2022/01/31 05:49:38;;;;;;;;;;;;;;;22.22;18.08;97291.84;4995728;28;1093;-77
2022/01/31 05:52:05;;;;;;;;;;;;;;;22.29;18.38;97294.41;4985774;28;1282;-78
2022/01/31 05:54:31;;;;;;;;;;;;;;;21.93;18.79;97294.22;5000113;28;1983;-78
2022/01/31 05:56:56;;;;;;;;;;;;;;;21.76;18.83;97299.28;4943427;29;1299;-77
2022/01/31 05:59:21;;;;;;;;;;;;;;;22.47;18.22;97295.72;4941822;29;1199;-78
2022/01/31 06:01:47;;;;;;;;;;;;;;;22.30;18.05;97307.31;4981778;28;1255;-77
2022/01/31 06:04:13;;;;;;;;;;;;;;;22.44;18.29;97308.78;4990782;28;1282;-78
2022/01/31 06:06:38;;;;;;;;;;;;;;;21.88;18.78;97317.47;4953255;28;1114;-77
2022/01/31 06:09:03;;;;;;;;;;;;;;;22.41;18.19;97328.78;4954144;29;1286;-78
2022/01/31 06:11:31;;;;;;;;;;;;;;;22.45;17.83;97320.91;4958409;29;1418;-77
2022/01/31 06:13:57;;;;;;;;;;;;;;;22.65;17.71;97321.28;4954488;29;1981;-77
2022/01/31 06:16:22;;;;;;;;;;;;;;;22.43;17.79;97320.56;4956873;29;1322;-77
2022/01/31 06:18:48;;;;;;;;;;;;;;;22.60;18.04;97319.06;4955685;29;1374;-78
2022/01/31 06:21:13;;;;;;;;;;;;;;;22.75;17.61;97325.72;4912572;29;1275;-78
2022/01/31 06:23:39;;;;;;;;;;;;;;;22.77;17.70;97334.53;4916397;29;1370;-77
2022/01/31 06:26:05;;;;;;;;;;;;;;;22.70;17.60;97334.06;4933604;29;1302;-77
2022/01/31 06:28:30;;;;;;;;;;;;;;;22.63;17.95;97329.47;4947970;28;1272;-78
2022/01/31 06:30:59;;;;;;;;;;;;;;;22.63;17.79;97329.47;4955083;28;1259;-77
2022/01/31 06:33:25;;;;;;;;;;;;;;;22.57;17.96;97331.34;4985201;28;1250;-77
2022/01/31 06:35:50;;;;;;;;;;;;;;;22.58;18.05;97330.88;5026123;28;1895;-78
2022/01/31 06:38:16;;;;;;;;;;;;;;;22.71;17.94;97329.97;5053618;28;911;-77
2022/01/31 06:40:41;;;;;;;;;;;;;;;22.87;17.51;97333.31;5048901;28;1351;-76
2022/01/31 06:43:07;;;;;;;;;;;;;;;22.40;17.88;97339.31;5063541;28;1265;-78
2022/01/31 06:45:32;;;;;;;;;;;;;;;21.85;18.73;97339.78;5065087;28;1304;-77
2022/01/31 06:47:58;;;;;;;;;;;;;;;21.87;18.76;97341.41;5038360;28;1676;-77
2022/01/31 06:50:23;;;;;;;;;;;;;;;22.42;18.15;97353.00;5005035;28;1239;-77
2022/01/31 06:52:53;;;;;;;;;;;;;;;22.52;18.13;97346.91;5004874;28;1135;-77
2022/01/31 06:55:20;;;;;;;;;;;;;;;21.99;18.44;97349.00;4984159;28;2008;-76
2022/01/31 06:57:45;;;;;;;;;;;;;;;21.50;18.60;97346.78;4984997;28;1148;-77
2022/01/31 07:00:12;;;;;;;;;;;;;;;22.06;18.45;97348.72;4962012;29;1192;-76
2022/01/31 07:02:37;;;;;;;;;;;;;;;22.00;18.44;97342.09;4928374;29;989;-77
2022/01/31 07:05:03;;;;;;;;;;;;;;;21.81;18.79;97344.81;4878632;29;1217;-76
2022/01/31 07:07:29;;;;;;;;;;;;;;;22.33;18.26;97348.91;4872736;29;1059;-76
2022/01/31 07:09:54;;;;;;;;;;;;;;;21.78;18.85;97339.28;4870541;29;993;-76
2022/01/31 07:12:23;;;;;;;;;;;;;;;22.44;18.23;97339.97;4872219;29;985;-77
2022/01/31 07:14:49;;;;;;;;;;;;;;;22.17;18.40;97337.00;4869814;29;1895;-76
2022/01/31 07:17:14;;;;;;;;;;;;;;;22.55;18.08;97339.53;4872605;29;932;-76
2022/01/31 07:19:41;;;;;;;;;;;;;;;22.61;17.95;97343.31;4869119;29;976;-75
2022/01/31 07:22:10;;;;;;;;;;;;;;;22.69;17.85;97335.31;4914740;29;1141;-76
2022/01/31 07:27:02;;;;;;;;;;;;;;;22.55;17.60;97334.66;4917491;29;1255;-77
2022/01/31 07:29:29;;;;;;;;;;;;;;;22.55;18.01;97342.38;4922938;29;1387;-77
2022/01/31 07:31:55;;;;;;;;;;;;;;;22.47;17.79;97335.41;4915421;29;1240;-76
2022/01/31 07:34:20;;;;;;;;;;;;;;;22.54;18.21;97337.97;4959418;29;1958;-77
2022/01/31 07:36:46;;;;;;;;;;;;;;;22.52;18.05;97329.13;4974082;28;1287;-77
2022/01/31 07:39:11;;;;;;;;;;;;;;;22.55;18.04;97333.88;4964600;28;953;-76
2022/01/31 07:41:37;;;;;;;;;;;;;;;22.33;18.31;97337.56;4966572;29;870;-77
2022/01/31 07:44:02;;;;;;;;;;;;;;;22.18;18.28;97339.38;4963692;29;1232;-77
2022/01/31 07:46:28;;;;;;;;;;;;;;;22.39;17.97;97348.28;4949405;29;1296;-76
2022/01/31 07:48:54;;;;;;;;;;;;;;;22.34;18.24;97336.31;4962925;29;1279;-76
2022/01/31 07:51:20;;;;;;;;;;;;;;;22.42;18.06;97336.00;4965996;29;1425;-76
2022/01/31 07:53:46;;;;;;;;;;;;;;;22.33;18.21;97334.72;4962136;29;1290;-76
2022/01/31 07:56:11;;;;;;;;;;;;;;;22.54;17.88;97329.47;4967465;29;1973;-76
2022/01/31 07:58:37;;;;;;;;;;;;;;;22.28;18.07;97338.19;4938520;29;1259;-77
2022/01/31 08:01:04;;;;;;;;;;;;;;;22.42;18.17;97336.00;4953863;29;1061;-76
2022/01/31 08:03:29;;;;;;;;;;;;;;;22.36;18.07;97333.78;4956299;29;1578;-76
2022/01/31 08:05:55;;;;;;;;;;;;;;;22.49;18.07;97347.06;4960573;29;1236;-76
2022/01/31 08:08:20;;;;;;;;;;;;;;;22.55;17.94;97328.19;4976949;28;1338;-77
2022/01/31 08:10:46;;;;;;;;;;;;;;;22.44;17.99;97333.50;5011828;28;1262;-77
2022/01/31 08:13:11;;;;;;;;;;;;;;;22.56;17.84;97332.59;5021620;28;1257;-76
2022/01/31 08:15:48;;;;;;;;;;;;;;;22.51;17.81;97333.22;5023341;28;1973;-76
2022/01/31 08:18:14;;;;;;;;;;;;;;;21.71;18.90;97326.19;5022475;28;1297;-77
2022/01/31 08:20:40;;;;;;;;;;;;;;;21.91;18.87;97325.03;5024826;28;988;-76
2022/01/31 08:23:07;;;;;;;;;;;;;;;21.94;18.83;97324.13;4983574;28;1009;-77
2022/01/31 08:25:36;;;;;;;;;;;;;;;22.56;17.92;97329.75;4984304;28;1024;-76
2022/01/31 08:28:06;;;;;;;;;;;;;;;22.36;18.33;97345.13;4983314;28;990;-76
2022/01/31 08:30:40;;;;;;;;;;;;;;;22.41;18.04;97332.38;4964547;28;1004;-76
2022/01/31 08:33:14;;;;;;;;;;;;;;;22.65;18.09;97335.47;4948076;29;1109;-77
2022/01/31 08:35:48;;;;;;;;;;;;;;;22.56;18.20;97346.78;4964811;29;1911;-76
2022/01/31 08:38:16;;;;;;;;;;;;;;;22.58;18.03;97349.91;5020575;28;1067;-77
2022/01/31 08:40:41;;;;;;;;;;;;;;;22.52;18.08;97351.78;5006646;28;1000;-76
2022/01/31 08:43:07;;;;;;;;;;;;;;;22.47;18.22;97356.03;5021604;28;957;-76
2022/01/31 08:45:33;;;;;;;;;;;;;;;22.41;18.37;97348.59;5022806;28;1041;-76
2022/01/31 08:47:58;;;;;;;;;;;;;;;21.92;18.98;97354.97;5021738;28;936;-77
2022/01/31 08:50:24;;;;;;;;;;;;;;;21.68;18.99;97363.13;5022547;28;899;-75
2022/01/31 08:52:49;;;;;;;;;;;;;;;21.26;19.49;97361.34;5023427;28;956;-77
2022/01/31 08:55:15;;;;;;;;;;;;;;;22.42;18.13;97353.00;4985409;28;1956;-76
2022/01/31 08:57:40;;;;;;;;;;;;;;;22.69;17.74;97355.97;5002637;28;1017;-76
2022/01/31 09:00:06;;;;;;;;;;;;;;;22.75;17.81;97337.06;5001217;28;1055;-76
2022/01/31 09:02:41;;;;;;;;;;;;;;;22.35;18.36;97349.22;5021717;28;1035;-77
2022/01/31 09:05:07;;;;;;;;;;;;;;;22.02;18.76;97342.41;5021357;28;930;-77
2022/01/31 09:07:32;;;;;;;;;;;;;;;21.91;18.79;97344.84;5023353;28;919;-77
2022/01/31 09:09:59;;;;;;;;;;;;;;;22.32;18.50;97352.97;5020916;28;973;-77
2022/01/31 09:12:29;;;;;;;;;;;;;;;22.26;18.24;97351.22;5023231;28;1020;-77
2022/01/31 09:14:54;;;;;;;;;;;;;;;21.94;18.51;97350.41;5021001;28;1902;-77
2022/01/31 09:17:20;;;;;;;;;;;;;;;21.71;18.93;97356.53;5006207;28;1076;-76
2022/01/31 09:19:45;;;;;;;;;;;;;;;22.31;18.48;97342.91;4987676;28;1006;-76
2022/01/31 09:22:10;;;;;;;;;;;;;;;22.30;18.63;97338.50;5023317;28;975;-76
2022/01/31 09:24:39;;;;;;;;;;;;;;;22.09;18.80;97333.63;5020551;28;1055;-77
2022/01/31 09:27:05;;;;;;;;;;;;;;;21.81;19.13;97327.00;5033652;28;1073;-77
2022/01/31 09:29:30;;;;;;;;;;;;;;;22.21;18.42;97321.44;5040568;28;913;-77
2022/01/31 09:31:56;;;;;;;;;;;;;;;22.23;18.37;97324.63;5042449;28;1175;-77
2022/01/31 09:34:23;;;;;;;;;;;;;;;22.30;18.55;97315.81;5040053;28;1953;-77
2022/01/31 09:36:48;;;;;;;;;;;;;;;21.76;18.79;97308.59;5041978;28;1312;-77
2022/01/31 09:39:14;;;;;;;;;;;;;;;22.24;18.38;97309.19;4961123;29;1343;-77
2022/01/31 09:41:42;;;;;;;;;;;;;;;22.41;18.28;97317.44;4964182;28;1291;-77
2022/01/31 09:44:38;;;;;;;;;;;;;;;22.39;18.15;97319.94;4965213;29;1255;-76
2022/01/31 09:47:19;;;;;;;;;;;;;;;22.28;18.51;97315.50;4967444;29;1112;-76
2022/01/31 09:49:44;;;;;;;;;;;;;;;22.78;17.96;97313.44;4964948;28;1172;-76
2022/01/31 09:52:10;;;;;;;;;;;;;;;22.86;17.79;97314.72;4950639;29;1315;-77
2022/01/31 09:54:35;;;;;;;;;;;;;;;22.48;18.11;97311.47;4964763;29;1903;-77
2022/01/31 09:57:01;;;;;;;;;;;;;;;22.28;18.30;97307.00;4969183;28;1220;-77
2022/01/31 09:59:26;;;;;;;;;;;;;;;22.26;18.72;97292.50;4984826;28;1036;-77
2022/01/31 10:01:54;;;;;;;;;;;;;;;22.92;17.99;97294.25;4986643;28;976;-77
2022/01/31 10:04:20;;;;;;;;;;;;;;;22.82;18.04;97284.91;4984936;28;937;-77
2022/01/31 10:06:47;;;;;;;;;;;;;;;22.32;18.29;97287.00;4986722;28;980;-76
2022/01/31 10:09:14;;;;;;;;;;;;;;;22.25;18.62;97271.09;4987749;28;946;-77
2022/01/31 10:11:49;;;;;;;;;;;;;;;22.08;19.02;97272.56;5035130;28;1043;-77
2022/01/31 10:17:21;;;;;;;;;;;;;;;22.54;18.08;97269.91;5006169;28;988;-77
2022/01/31 10:19:47;;;;;;;;;;;;;;;21.92;18.96;97282.09;5003378;28;944;-77
2022/01/31 10:22:16;;;;;;;;;;;;;;;21.96;18.94;97274.22;5006663;28;1018;-77
2022/01/31 10:24:42;;;;;;;;;;;;;;;22.73;18.25;97265.84;5003864;28;1038;-76
2022/01/31 10:27:12;;;;;;;;;;;;;;;22.92;17.98;97260.22;5007863;28;1208;-76
2022/01/31 10:29:37;;;;;;;;;;;;;;;22.53;18.41;97259.81;5022718;28;998;-77
2022/01/31 10:32:04;;;;;;;;;;;;;;;22.24;18.41;97246.84;5024698;28;989;-77
2022/01/31 10:34:31;;;;;;;;;;;;;;;22.20;18.40;97251.84;5005589;28;1883;-77
2022/01/31 10:37:22;;;;;;;;;;;;;;;22.75;18.21;97242.69;5023173;28;1076;-77
2022/01/31 10:45:44;;;;;;;;;;;;;;;22.10;18.83;97225.53;4996116;28;984;-77
2022/01/31 10:53:37;;;;;;;;;;;;;;;22.54;18.26;97218.88;4979743;28;1200;-77
2022/01/31 10:56:03;;;;;;;;;;;;;;;22.41;18.61;97204.06;4964626;29;1907;-77
2022/01/31 10:58:30;;;;;;;;;;;;;;;22.31;18.59;97212.53;4960812;29;923;-77
2022/01/31 11:01:09;;;;;;;;;;;;;;;22.64;18.27;97206.28;4964241;29;1212;-77
2022/01/31 11:03:35;;;;;;;;;;;;;;;22.85;17.98;97199.69;4938483;29;1219;-77
2022/01/31 11:06:08;;;;;;;;;;;;;;;22.55;18.27;97195.72;4935159;29;1278;-77
2022/01/31 11:08:33;;;;;;;;;;;;;;;22.30;18.89;97193.94;4932354;29;1251;-77
2022/01/31 11:10:59;;;;;;;;;;;;;;;22.22;18.90;97189.81;4936220;29;1355;-77
2022/01/31 11:13:27;;;;;;;;;;;;;;;22.53;18.39;97194.59;4932380;29;1275;-77
2022/01/31 11:15:55;;;;;;;;;;;;;;;22.84;18.12;97185.94;4939730;29;1911;-76
2022/01/31 11:18:24;;;;;;;;;;;;;;;22.61;18.04;97196.66;4952235;29;1255;-77
2022/01/31 11:20:53;;;;;;;;;;;;;;;22.39;18.75;97196.03;4946736;28;1268;-76
2022/01/31 11:23:18;;;;;;;;;;;;;;;22.09;18.83;97194.81;4991101;28;1352;-77
2022/01/31 11:25:44;;;;;;;;;;;;;;;22.23;18.83;97199.16;4997451;28;1294;-77
2022/01/31 11:28:10;;;;;;;;;;;;;;;22.79;18.38;97195.09;5018049;28;1235;-76
2022/01/31 11:30:35;;;;;;;;;;;;;;;22.91;17.98;97191.34;5021302;28;1290;-77
2022/01/31 11:33:01;;;;;;;;;;;;;;;22.43;18.46;97193.00;5019238;28;1289;-76
2022/01/31 11:35:27;;;;;;;;;;;;;;;22.25;18.93;97197.41;5020614;28;1910;-76
2022/01/31 11:37:53;;;;;;;;;;;;;;;22.18;18.79;97192.03;5019903;28;1245;-76
2022/01/31 11:40:18;;;;;;;;;;;;;;;22.72;18.23;97190.53;5003651;28;1230;-77
2022/01/31 11:42:44;;;;;;;;;;;;;;;22.79;18.38;97187.38;5020119;28;1015;-76
2022/01/31 11:45:30;;;;;;;;;;;;;;;22.38;18.87;97187.97;4999762;28;973;-77
2022/01/31 11:47:58;;;;;;;;;;;;;;;22.20;18.80;97183.84;4999450;28;1502;-76
2022/01/31 11:50:24;;;;;;;;;;;;;;;22.21;19.06;97185.44;4981422;28;1084;-77
2022/01/31 11:52:50;;;;;;;;;;;;;;;22.71;18.50;97188.97;4980845;28;924;-76
2022/01/31 11:55:17;;;;;;;;;;;;;;;22.67;18.18;97182.66;4981017;28;1977;-77
2022/01/31 11:57:49;;;;;;;;;;;;;;;22.31;18.97;97175.69;4981695;28;993;-77
2022/01/31 12:00:15;;;;;;;;;;;;;;;22.30;19.02;97176.94;4999206;28;1039;-76
2022/01/31 12:06:09;;;;;;;;;;;;;;;23.00;18.06;97165.81;5001465;28;929;-77
2022/01/31 12:08:37;;;;;;;;;;;;;;;22.72;18.50;97167.06;4998437;28;946;-77
2022/01/31 12:11:17;;;;;;;;;;;;;;;22.32;18.79;97163.09;5002235;28;1215;-77
2022/01/31 12:13:45;;;;;;;;;;;;;;;22.20;18.99;97158.34;4998539;28;969;-76
2022/01/31 12:16:34;;;;;;;;;;;;;;;22.33;19.04;97159.00;5011423;28;1903;-77
2022/01/31 12:19:17;;;;;;;;;;;;;;;22.88;18.09;97147.69;5018852;28;935;-76
2022/01/31 12:22:01;;;;;;;;;;;;;;;22.79;18.20;97144.81;5046763;28;942;-76
2022/01/31 12:24:28;;;;;;;;;;;;;;;22.48;18.81;97152.72;5061154;28;1103;-76
2022/01/31 12:26:57;;;;;;;;;;;;;;;22.18;18.97;97151.59;5060479;28;1099;-75
2022/01/31 12:29:28;;;;;;;;;;;;;;;22.49;18.44;97145.81;5058486;28;972;-77
2022/01/31 12:31:54;;;;;;;;;;;;;;;22.82;18.42;97152.41;5060767;28;924;-77
2022/01/31 12:34:21;;;;;;;;;;;;;;;22.65;18.62;97147.53;5057852;28;1906;-77
2022/01/31 12:36:50;;;;;;;;;;;;;;;22.41;18.94;97158.69;5059646;28;973;-77
2022/01/31 12:42:02;;;;;;;;;;;;;;;22.33;19.04;97153.34;5059524;28;1227;-76
2022/01/31 12:44:34;;;;;;;;;;;;;;;22.92;18.32;97147.53;5058547;28;1013;-76
2022/01/31 12:47:11;;;;;;;;;;;;;;;22.90;18.22;97146.41;5059220;28;978;-77
2022/01/31 12:49:37;;;;;;;;;;;;;;;22.45;18.55;97145.16;5041751;28;1194;-77
2022/01/31 12:52:03;;;;;;;;;;;;;;;22.24;18.94;97150.50;5043029;28;942;-77
2022/01/31 12:54:29;;;;;;;;;;;;;;;22.35;18.77;97147.97;5057946;28;1983;-77
2022/01/31 12:56:55;;;;;;;;;;;;;;;22.83;18.10;97139.00;5060598;28;952;-76
2022/01/31 12:59:21;;;;;;;;;;;;;;;22.71;18.52;97137.91;5057161;28;989;-76
2022/01/31 13:01:47;;;;;;;;;;;;;;;22.35;18.56;97152.88;5060101;28;1025;-77
2022/01/31 13:04:17;;;;;;;;;;;;;;;22.03;19.03;97140.81;5037731;28;973;-76
2022/01/31 13:06:48;;;;;;;;;;;;;;;22.24;18.74;97139.16;5039166;28;1063;-77
2022/01/31 13:09:15;;;;;;;;;;;;;;;22.28;18.93;97139.81;5037708;28;996;-77
2022/01/31 13:11:41;;;;;;;;;;;;;;;22.12;18.86;97136.44;5019132;28;1077;-77
2022/01/31 13:14:11;;;;;;;;;;;;;;;22.19;18.85;97133.31;4946225;28;1178;-77
2022/01/31 13:19:26;;;;;;;;;;;;;;;22.18;18.71;97126.88;4921063;29;960;-77
2022/01/31 13:21:51;;;;;;;;;;;;;;;22.21;18.73;97142.91;4885605;29;929;-76
2022/01/31 13:24:17;;;;;;;;;;;;;;;22.23;19.03;97142.47;4883660;29;990;-77
2022/01/31 13:26:49;;;;;;;;;;;;;;;22.85;18.42;97123.09;4885828;29;942;-77
2022/01/31 13:29:31;;;;;;;;;;;;;;;22.94;18.30;97127.19;4845030;29;1117;-76